sensor_id;sensor_type;location;lat;lon;timestamp;P1;P2;P0
35654;PMS1003;21773;50.010;19.972;2023-08-21T00:02:05;21.00;20.00;18.00
35654;PMS1003;21773;50.010;19.972;2023-08-21T00:05:08;21.00;20.00;18.25
35654;PMS1003;21773;50.010;19.972;2023-08-21T00:08:12;23.00;22.00;19.50
35654;PMS1003;21773;50.010;19.972;2023-08-21T00:11:15;24.00;21.40;18.00
35654;PMS1003;21773;50.010;19.972;2023-08-21T00:14:18;21.00;20.00;17.25
35654;PMS1003;21773;50.010;19.972;2023-08-21T00:17:23;22.20;20.00;17.20
35654;PMS1003;21773;50.010;19.972;2023-08-21T00:20:26;24.00;21.75;19.00
35654;PMS1003;21773;50.010;19.972;2023-08-21T00:23:29;20.40;20.00;17.00
35654;PMS1003;21773;50.010;19.972;2023-08-21T00:26:33;23.25;21.25;18.25
35654;PMS1003;21773;50.010;19.972;2023-08-21T00:29:36;20.40;18.80;16.80
35654;PMS1003;21773;50.010;19.972;2023-08-21T00:32:40;20.25;19.00;17.00
35654;PMS1003;21773;50.010;19.972;2023-08-21T00:35:44;26.40;21.40;18.00
35654;PMS1003;21773;50.010;19.972;2023-08-21T00:38:47;22.20;21.40;19.00
35654;PMS1003;21773;50.010;19.972;2023-08-21T00:41:50;23.50;20.75;18.00
35654;PMS1003;21773;50.010;19.972;2023-08-21T00:44:54;23.00;22.00;18.00
35654;PMS1003;21773;50.010;19.972;2023-08-21T00:47:58;20.00;19.00;16.60
35654;PMS1003;21773;50.010;19.972;2023-08-21T00:51:02;23.00;22.00;20.00
35654;PMS1003;21773;50.010;19.972;2023-08-21T00:54:05;22.00;21.00;18.40
35654;PMS1003;21773;50.010;19.972;2023-08-21T00:57:09;21.00;19.20;17.20
35654;PMS1003;21773;50.010;19.972;2023-08-21T01:00:13;23.80;21.00;18.20
35654;PMS1003;21773;50.010;19.972;2023-08-21T01:03:18;19.00;19.00;17.00
35654;PMS1003;21773;50.010;19.972;2023-08-21T01:06:21;23.00;22.00;18.00
35654;PMS1003;21773;50.010;19.972;2023-08-21T01:09:27;22.50;20.50;18.50
35654;PMS1003;21773;50.010;19.972;2023-08-21T01:12:37;21.40;20.00;16.00
35654;PMS1003;21773;50.010;19.972;2023-08-21T01:15:46;21.00;19.80;16.20
35654;PMS1003;21773;50.010;19.972;2023-08-21T01:18:55;21.00;19.00;16.00
35654;PMS1003;21773;50.010;19.972;2023-08-21T01:21:59;19.40;18.40;15.00
35654;PMS1003;21773;50.010;19.972;2023-08-21T01:25:04;19.00;17.80;16.00
35654;PMS1003;21773;50.010;19.972;2023-08-21T01:28:08;20.00;19.00;16.50
35654;PMS1003;21773;50.010;19.972;2023-08-21T01:31:13;20.00;19.75;16.75
35654;PMS1003;21773;50.010;19.972;2023-08-21T01:34:21;19.60;18.20;17.00
35654;PMS1003;21773;50.010;19.972;2023-08-21T01:37:26;20.00;19.00;16.00
35654;PMS1003;21773;50.010;19.972;2023-08-21T01:40:30;22.25;20.25;18.00
35654;PMS1003;21773;50.010;19.972;2023-08-21T01:43:34;22.50;19.50;16.50
35654;PMS1003;21773;50.010;19.972;2023-08-21T01:46:37;21.00;21.00;20.00
35654;PMS1003;21773;50.010;19.972;2023-08-21T01:49:40;19.00;19.00;16.40
35654;PMS1003;21773;50.010;19.972;2023-08-21T01:52:43;21.50;19.00;17.00
35654;PMS1003;21773;50.010;19.972;2023-08-21T01:55:48;19.80;18.20;17.00
35654;PMS1003;21773;50.010;19.972;2023-08-21T01:58:51;23.00;22.00;19.00
35654;PMS1003;21773;50.010;19.972;2023-08-21T02:01:54;23.75;22.75;20.00
35654;PMS1003;21773;50.010;19.972;2023-08-21T02:04:59;23.40;22.40;19.00
35654;PMS1003;21773;50.010;19.972;2023-08-21T02:08:02;21.50;20.00;18.00
35654;PMS1003;21773;50.010;19.972;2023-08-21T02:11:07;20.00;20.00;16.25
35654;PMS1003;21773;50.010;19.972;2023-08-21T02:14:10;22.00;21.00;18.00
35654;PMS1003;21773;50.010;19.972;2023-08-21T02:17:13;23.00;22.00;20.00
35654;PMS1003;21773;50.010;19.972;2023-08-21T02:20:17;21.20;20.20;18.20
35654;PMS1003;21773;50.010;19.972;2023-08-21T02:23:20;21.80;20.00;17.20
35654;PMS1003;21773;50.010;19.972;2023-08-21T02:26:25;24.40;21.00;19.00
35654;PMS1003;21773;50.010;19.972;2023-08-21T02:29:28;21.80;21.80;18.80
35654;PMS1003;21773;50.010;19.972;2023-08-21T02:32:31;25.50;23.00;20.00
35654;PMS1003;21773;50.010;19.972;2023-08-21T02:35:35;24.40;23.00;20.00
35654;PMS1003;21773;50.010;19.972;2023-08-21T02:38:39;18.20;17.00;15.00
35654;PMS1003;21773;50.010;19.972;2023-08-21T02:41:46;20.60;19.40;17.00
35654;PMS1003;21773;50.010;19.972;2023-08-21T02:44:50;23.00;21.00;18.00
35654;PMS1003;21773;50.010;19.972;2023-08-21T02:47:55;22.00;19.00;17.00
35654;PMS1003;21773;50.010;19.972;2023-08-21T02:50:59;21.40;21.40;18.40
35654;PMS1003;21773;50.010;19.972;2023-08-21T02:54:06;19.40;18.00;16.00
35654;PMS1003;21773;50.010;19.972;2023-08-21T02:57:12;20.60;19.00;16.40
35654;PMS1003;21773;50.010;19.972;2023-08-21T03:00:16;24.00;22.00;19.00
35654;PMS1003;21773;50.010;19.972;2023-08-21T03:03:21;22.00;20.00;17.00
35654;PMS1003;21773;50.010;19.972;2023-08-21T03:06:35;22.00;21.00;19.75
35654;PMS1003;21773;50.010;19.972;2023-08-21T03:09:50;25.75;23.00;19.75
35654;PMS1003;21773;50.010;19.972;2023-08-21T03:12:57;21.25;21.00;19.25
35654;PMS1003;21773;50.010;19.972;2023-08-21T03:16:02;21.60;21.00;19.00
35654;PMS1003;21773;50.010;19.972;2023-08-21T03:19:07;22.50;21.25;18.00
35654;PMS1003;21773;50.010;19.972;2023-08-21T03:22:12;21.60;20.60;18.00
35654;PMS1003;21773;50.010;19.972;2023-08-21T03:25:17;22.20;19.20;16.80
35654;PMS1003;21773;50.010;19.972;2023-08-21T03:28:23;23.00;21.00;18.00
35654;PMS1003;21773;50.010;19.972;2023-08-21T03:31:28;21.00;20.00;17.00
35654;PMS1003;21773;50.010;19.972;2023-08-21T03:34:32;19.50;19.00;17.00
35654;PMS1003;21773;50.010;19.972;2023-08-21T03:37:36;25.60;24.20;20.00
35654;PMS1003;21773;50.010;19.972;2023-08-21T03:40:41;20.60;20.60;17.60
35654;PMS1003;21773;50.010;19.972;2023-08-21T03:43:46;22.60;20.60;18.60
35654;PMS1003;21773;50.010;19.972;2023-08-21T03:46:49;21.75;19.75;17.75
35654;PMS1003;21773;50.010;19.972;2023-08-21T03:49:52;22.60;22.00;19.00
35654;PMS1003;21773;50.010;19.972;2023-08-21T03:52:57;23.00;21.60;19.00
35654;PMS1003;21773;50.010;19.972;2023-08-21T03:56:00;23.00;21.00;18.00
35654;PMS1003;21773;50.010;19.972;2023-08-21T03:59:05;23.00;22.00;19.00
35654;PMS1003;21773;50.010;19.972;2023-08-21T04:02:09;24.00;21.00;20.00
35654;PMS1003;21773;50.010;19.972;2023-08-21T04:05:12;23.00;21.00;18.40
35654;PMS1003;21773;50.010;19.972;2023-08-21T04:08:15;21.00;19.00;16.50
35654;PMS1003;21773;50.010;19.972;2023-08-21T04:11:19;16.60;15.80;13.40
35654;PMS1003;21773;50.010;19.972;2023-08-21T04:14:23;19.60;18.80;16.00
35654;PMS1003;21773;50.010;19.972;2023-08-21T04:17:27;22.00;20.00;18.00
35654;PMS1003;21773;50.010;19.972;2023-08-21T04:20:30;19.00;18.60;15.00
35654;PMS1003;21773;50.010;19.972;2023-08-21T04:23:33;18.00;15.50;13.00
35654;PMS1003;21773;50.010;19.972;2023-08-21T04:26:37;18.60;16.60;14.00
35654;PMS1003;21773;50.010;19.972;2023-08-21T04:29:41;17.00;16.00;14.00
35654;PMS1003;21773;50.010;19.972;2023-08-21T04:32:44;19.33;18.33;17.00
35654;PMS1003;21773;50.010;19.972;2023-08-21T04:35:48;19.40;18.00;16.00
35654;PMS1003;21773;50.010;19.972;2023-08-21T04:38:51;18.20;17.60;15.60
35654;PMS1003;21773;50.010;19.972;2023-08-21T04:41:55;20.00;18.60;17.00
35654;PMS1003;21773;50.010;19.972;2023-08-21T04:45:00;24.00;22.00;19.33
35654;PMS1003;21773;50.010;19.972;2023-08-21T04:48:06;24.00;20.00;17.00
35654;PMS1003;21773;50.010;19.972;2023-08-21T04:51:10;20.20;19.80;16.80
35654;PMS1003;21773;50.010;19.972;2023-08-21T04:54:13;23.00;20.20;17.80
35654;PMS1003;21773;50.010;19.972;2023-08-21T04:57:16;21.00;21.00;18.00
35654;PMS1003;21773;50.010;19.972;2023-08-21T05:00:21;26.00;22.00;19.00
35654;PMS1003;21773;50.010;19.972;2023-08-21T05:03:25;21.40;20.00;16.00
35654;PMS1003;21773;50.010;19.972;2023-08-21T05:06:29;19.20;18.00;16.20
35654;PMS1003;21773;50.010;19.972;2023-08-21T05:09:32;20.00;18.80;16.00
35654;PMS1003;21773;50.010;19.972;2023-08-21T05:12:37;21.40;19.40;16.60
35654;PMS1003;21773;50.010;19.972;2023-08-21T05:15:42;21.80;21.00;18.80
35654;PMS1003;21773;50.010;19.972;2023-08-21T05:18:46;22.00;21.00;17.60
35654;PMS1003;21773;50.010;19.972;2023-08-21T05:21:50;19.00;18.00;16.00
35654;PMS1003;21773;50.010;19.972;2023-08-21T05:24:54;20.00;19.00;16.25
35654;PMS1003;21773;50.010;19.972;2023-08-21T05:27:57;23.00;19.40;17.40
35654;PMS1003;21773;50.010;19.972;2023-08-21T05:31:02;19.00;18.50;16.00
35654;PMS1003;21773;50.010;19.972;2023-08-21T05:34:18;17.00;17.00;14.40
35654;PMS1003;21773;50.010;19.972;2023-08-21T05:37:21;18.40;17.00;15.40
35654;PMS1003;21773;50.010;19.972;2023-08-21T05:40:24;16.60;15.60;14.40
35654;PMS1003;21773;50.010;19.972;2023-08-21T05:43:27;18.00;17.33;15.33
35654;PMS1003;21773;50.010;19.972;2023-08-21T05:46:33;18.60;18.00;15.60
35654;PMS1003;21773;50.010;19.972;2023-08-21T05:49:39;17.00;16.00;13.00
35654;PMS1003;21773;50.010;19.972;2023-08-21T05:52:42;16.25;16.00;14.00
35654;PMS1003;21773;50.010;19.972;2023-08-21T05:55:45;19.00;17.00;14.00
35654;PMS1003;21773;50.010;19.972;2023-08-21T05:58:49;16.00;15.00;13.00
35654;PMS1003;21773;50.010;19.972;2023-08-21T06:01:54;19.20;18.00;15.00
35654;PMS1003;21773;50.010;19.972;2023-08-21T06:04:57;20.00;18.00;15.00
35654;PMS1003;21773;50.010;19.972;2023-08-21T06:08:00;15.80;14.20;12.00
35654;PMS1003;21773;50.010;19.972;2023-08-21T06:11:05;20.00;18.00;15.00
35654;PMS1003;21773;50.010;19.972;2023-08-21T06:14:08;20.25;19.00;17.00
35654;PMS1003;21773;50.010;19.972;2023-08-21T06:17:13;19.00;17.40;14.80
35654;PMS1003;21773;50.010;19.972;2023-08-21T06:20:16;19.00;18.00;16.00
35654;PMS1003;21773;50.010;19.972;2023-08-21T06:23:21;17.00;16.00;14.00
35654;PMS1003;21773;50.010;19.972;2023-08-21T06:26:24;18.00;15.00;13.00
35654;PMS1003;21773;50.010;19.972;2023-08-21T06:29:27;18.20;17.00;14.00
35654;PMS1003;21773;50.010;19.972;2023-08-21T06:32:32;20.00;17.50;14.00
35654;PMS1003;21773;50.010;19.972;2023-08-21T06:35:36;19.75;18.00;15.00
35654;PMS1003;21773;50.010;19.972;2023-08-21T06:38:40;16.00;15.00;14.00
35654;PMS1003;21773;50.010;19.972;2023-08-21T06:41:43;18.00;16.00;13.00
35654;PMS1003;21773;50.010;19.972;2023-08-21T06:44:52;19.80;18.40;16.00
35654;PMS1003;21773;50.010;19.972;2023-08-21T06:47:56;18.60;17.60;14.60
35654;PMS1003;21773;50.010;19.972;2023-08-21T06:51:00;19.40;17.80;15.40
35654;PMS1003;21773;50.010;19.972;2023-08-21T06:54:04;19.00;18.00;15.67
35654;PMS1003;21773;50.010;19.972;2023-08-21T06:57:07;17.00;17.00;15.00
35654;PMS1003;21773;50.010;19.972;2023-08-21T07:00:10;17.25;16.00;14.00
35654;PMS1003;21773;50.010;19.972;2023-08-21T07:03:16;19.00;18.00;15.00
35654;PMS1003;21773;50.010;19.972;2023-08-21T07:06:19;16.00;14.20;13.00
35654;PMS1003;21773;50.010;19.972;2023-08-21T07:09:23;18.50;17.00;14.00
35654;PMS1003;21773;50.010;19.972;2023-08-21T07:12:26;18.00;16.00;14.00
35654;PMS1003;21773;50.010;19.972;2023-08-21T07:15:29;18.00;17.00;15.00
35654;PMS1003;21773;50.010;19.972;2023-08-21T07:18:34;16.00;14.00;12.00
35654;PMS1003;21773;50.010;19.972;2023-08-21T07:21:38;17.00;17.00;14.00
35654;PMS1003;21773;50.010;19.972;2023-08-21T07:24:41;19.00;18.00;15.40
35654;PMS1003;21773;50.010;19.972;2023-08-21T07:27:45;19.00;17.00;14.00
35654;PMS1003;21773;50.010;19.972;2023-08-21T07:30:48;21.00;17.00;14.60
35654;PMS1003;21773;50.010;19.972;2023-08-21T07:33:52;20.00;20.00;16.40
35654;PMS1003;21773;50.010;19.972;2023-08-21T07:36:56;18.60;16.60;15.00
35654;PMS1003;21773;50.010;19.972;2023-08-21T07:39:59;18.00;17.60;16.00
35654;PMS1003;21773;50.010;19.972;2023-08-21T07:43:03;20.00;18.00;15.60
35654;PMS1003;21773;50.010;19.972;2023-08-21T07:46:07;21.00;18.60;15.00
35654;PMS1003;21773;50.010;19.972;2023-08-21T07:49:15;21.00;19.00;16.00
35654;PMS1003;21773;50.010;19.972;2023-08-21T07:52:18;19.80;18.80;15.80
35654;PMS1003;21773;50.010;19.972;2023-08-21T07:55:22;18.80;15.60;14.20
35654;PMS1003;21773;50.010;19.972;2023-08-21T07:58:25;20.00;18.00;16.00
35654;PMS1003;21773;50.010;19.972;2023-08-21T08:01:28;22.00;20.00;18.00
35654;PMS1003;21773;50.010;19.972;2023-08-21T08:04:33;18.00;17.00;14.60
35654;PMS1003;21773;50.010;19.972;2023-08-21T08:07:36;18.60;17.60;15.00
35654;PMS1003;21773;50.010;19.972;2023-08-21T08:10:39;21.60;19.00;16.60
35654;PMS1003;21773;50.010;19.972;2023-08-21T08:13:43;16.80;14.80;13.00
35654;PMS1003;21773;50.010;19.972;2023-08-21T08:16:46;17.25;16.00;14.00
35654;PMS1003;21773;50.010;19.972;2023-08-21T08:19:51;18.40;17.40;16.00
35654;PMS1003;21773;50.010;19.972;2023-08-21T08:22:55;20.25;17.25;14.50
35654;PMS1003;21773;50.010;19.972;2023-08-21T08:25:58;17.40;16.00;14.00
35654;PMS1003;21773;50.010;19.972;2023-08-21T08:29:01;19.50;17.50;15.00
35654;PMS1003;21773;50.010;19.972;2023-08-21T08:32:05;19.40;18.40;15.40
35654;PMS1003;21773;50.010;19.972;2023-08-21T08:35:10;20.00;19.00;17.00
35654;PMS1003;21773;50.010;19.972;2023-08-21T08:38:13;17.00;16.00;13.75
35654;PMS1003;21773;50.010;19.972;2023-08-21T08:41:20;18.80;17.80;15.40
35654;PMS1003;21773;50.010;19.972;2023-08-21T08:44:29;21.00;20.00;17.00
35654;PMS1003;21773;50.010;19.972;2023-08-21T08:47:33;17.50;17.50;15.00
35654;PMS1003;21773;50.010;19.972;2023-08-21T08:50:39;21.00;17.40;15.00
35654;PMS1003;21773;50.010;19.972;2023-08-21T08:53:43;22.00;21.00;18.00
35654;PMS1003;21773;50.010;19.972;2023-08-21T08:56:47;22.00;19.60;17.00
35654;PMS1003;21773;50.010;19.972;2023-08-21T08:59:50;25.80;22.80;20.00
35654;PMS1003;21773;50.010;19.972;2023-08-21T09:02:54;20.00;19.20;17.00
35654;PMS1003;21773;50.010;19.972;2023-08-21T09:05:59;24.60;22.60;18.60
35654;PMS1003;21773;50.010;19.972;2023-08-21T09:09:03;30.25;25.75;21.50
35654;PMS1003;21773;50.010;19.972;2023-08-21T09:12:09;29.40;27.40;21.00
35654;PMS1003;21773;50.010;19.972;2023-08-21T09:15:14;31.25;27.25;22.00
35654;PMS1003;21773;50.010;19.972;2023-08-21T09:18:17;30.80;27.40;20.80
35654;PMS1003;21773;50.010;19.972;2023-08-21T09:21:22;33.60;30.00;22.00
35654;PMS1003;21773;50.010;19.972;2023-08-21T09:24:26;35.00;31.60;24.00
35654;PMS1003;21773;50.010;19.972;2023-08-21T09:27:29;31.00;28.40;22.40
35654;PMS1003;21773;50.010;19.972;2023-08-21T09:33:55;32.00;29.00;22.00
35654;PMS1003;21773;50.010;19.972;2023-08-21T09:37:00;34.20;29.60;23.60
35654;PMS1003;21773;50.010;19.972;2023-08-21T09:40:04;29.75;28.25;21.75
35654;PMS1003;21773;50.010;19.972;2023-08-21T09:43:12;27.00;24.80;19.80
35654;PMS1003;21773;50.010;19.972;2023-08-21T09:46:16;28.60;26.20;21.60
35654;PMS1003;21773;50.010;19.972;2023-08-21T09:49:20;27.00;24.00;19.60
35654;PMS1003;21773;50.010;19.972;2023-08-21T09:52:25;22.00;20.50;17.00
35654;PMS1003;21773;50.010;19.972;2023-08-21T09:55:48;21.00;19.00;15.00
35654;PMS1003;21773;50.010;19.972;2023-08-21T09:58:54;24.00;22.00;18.40
35654;PMS1003;21773;50.010;19.972;2023-08-21T10:01:59;24.00;21.00;17.00
35654;PMS1003;21773;50.010;19.972;2023-08-21T10:05:03;24.00;22.00;17.00
35654;PMS1003;21773;50.010;19.972;2023-08-21T10:08:08;22.80;21.00;17.00
35654;PMS1003;21773;50.010;19.972;2023-08-21T10:11:12;23.33;21.00;16.00
35654;PMS1003;21773;50.010;19.972;2023-08-21T10:14:16;21.60;19.00;16.40
35654;PMS1003;21773;50.010;19.972;2023-08-21T10:17:20;21.40;20.00;17.00
35654;PMS1003;21773;50.010;19.972;2023-08-21T10:20:24;18.00;16.00;14.00
35654;PMS1003;21773;50.010;19.972;2023-08-21T10:23:30;23.25;21.00;18.00
35654;PMS1003;21773;50.010;19.972;2023-08-21T10:26:37;19.25;18.00;15.50
35654;PMS1003;21773;50.010;19.972;2023-08-21T10:29:44;19.80;18.80;15.80
35654;PMS1003;21773;50.010;19.972;2023-08-21T10:32:59;21.60;19.00;16.00
35654;PMS1003;21773;50.010;19.972;2023-08-21T10:36:03;22.40;20.80;17.00
35654;PMS1003;21773;50.010;19.972;2023-08-21T10:39:15;21.60;20.00;16.40
35654;PMS1003;21773;50.010;19.972;2023-08-21T10:42:21;20.00;18.40;14.00
35654;PMS1003;21773;50.010;19.972;2023-08-21T10:45:53;19.40;18.00;15.00
35654;PMS1003;21773;50.010;19.972;2023-08-21T10:48:57;21.00;19.00;15.40
35654;PMS1003;21773;50.010;19.972;2023-08-21T10:52:00;18.00;16.00;14.00
35654;PMS1003;21773;50.010;19.972;2023-08-21T10:55:07;18.00;17.00;14.00
35654;PMS1003;21773;50.010;19.972;2023-08-21T10:58:11;19.20;16.60;14.60
35654;PMS1003;21773;50.010;19.972;2023-08-21T11:01:16;18.50;16.50;14.50
35654;PMS1003;21773;50.010;19.972;2023-08-21T11:04:19;19.80;19.00;17.00
35654;PMS1003;21773;50.010;19.972;2023-08-21T11:07:23;18.75;17.00;16.00
35654;PMS1003;21773;50.010;19.972;2023-08-21T11:10:29;19.00;17.00;14.50
35654;PMS1003;21773;50.010;19.972;2023-08-21T11:13:33;17.60;16.60;14.00
35654;PMS1003;21773;50.010;19.972;2023-08-21T11:16:36;19.80;18.80;15.00
35654;PMS1003;21773;50.010;19.972;2023-08-21T11:19:40;19.60;18.60;15.60
35654;PMS1003;21773;50.010;19.972;2023-08-21T11:22:43;20.00;19.00;16.00
35654;PMS1003;21773;50.010;19.972;2023-08-21T11:25:48;23.00;21.00;17.00
35654;PMS1003;21773;50.010;19.972;2023-08-21T11:28:51;23.50;21.25;18.00
35654;PMS1003;21773;50.010;19.972;2023-08-21T11:31:54;22.50;20.50;16.75
35654;PMS1003;21773;50.010;19.972;2023-08-21T11:34:58;19.00;18.00;15.00
35654;PMS1003;21773;50.010;19.972;2023-08-21T11:38:01;21.00;19.80;15.80
35654;PMS1003;21773;50.010;19.972;2023-08-21T11:41:10;18.80;17.20;14.00
35654;PMS1003;21773;50.010;19.972;2023-08-21T11:44:13;22.80;19.20;16.20
35654;PMS1003;21773;50.010;19.972;2023-08-21T11:47:20;27.00;23.20;18.80
35654;PMS1003;21773;50.010;19.972;2023-08-21T11:50:24;26.00;24.00;18.80
35654;PMS1003;21773;50.010;19.972;2023-08-21T11:53:32;23.40;21.40;18.00
35654;PMS1003;21773;50.010;19.972;2023-08-21T11:56:39;27.00;23.40;19.00
35654;PMS1003;21773;50.010;19.972;2023-08-21T11:59:49;26.00;24.00;19.00
35654;PMS1003;21773;50.010;19.972;2023-08-21T12:02:54;23.50;20.50;16.00
35654;PMS1003;21773;50.010;19.972;2023-08-21T12:05:59;24.50;23.50;20.00
35654;PMS1003;21773;50.010;19.972;2023-08-21T12:09:02;28.00;26.00;20.00
35654;PMS1003;21773;50.010;19.972;2023-08-21T12:12:07;24.60;22.00;19.00
35654;PMS1003;21773;50.010;19.972;2023-08-21T12:15:10;24.50;22.00;19.00
35654;PMS1003;21773;50.010;19.972;2023-08-21T12:18:14;27.50;24.00;20.00
35654;PMS1003;21773;50.010;19.972;2023-08-21T12:21:17;24.60;22.00;17.00
35654;PMS1003;21773;50.010;19.972;2023-08-21T12:24:20;23.40;20.60;17.60
35654;PMS1003;21773;50.010;19.972;2023-08-21T12:27:24;21.25;21.00;18.00
35654;PMS1003;21773;50.010;19.972;2023-08-21T12:30:28;22.00;19.40;17.00
35654;PMS1003;21773;50.010;19.972;2023-08-21T12:33:31;26.00;23.00;18.40
35654;PMS1003;21773;50.010;19.972;2023-08-21T12:36:35;26.50;24.25;20.00
35654;PMS1003;21773;50.010;19.972;2023-08-21T12:39:39;25.60;23.00;19.00
35654;PMS1003;21773;50.010;19.972;2023-08-21T12:42:44;26.00;23.00;19.00
35654;PMS1003;21773;50.010;19.972;2023-08-21T12:45:47;22.40;20.40;16.40
35654;PMS1003;21773;50.010;19.972;2023-08-21T12:48:50;24.00;21.60;17.40
35654;PMS1003;21773;50.010;19.972;2023-08-21T12:51:53;23.00;23.00;18.00
35654;PMS1003;21773;50.010;19.972;2023-08-21T12:54:57;23.00;22.00;19.00
35654;PMS1003;21773;50.010;19.972;2023-08-21T12:58:02;24.00;22.00;19.40
35654;PMS1003;21773;50.010;19.972;2023-08-21T13:01:05;25.00;24.00;21.00
35654;PMS1003;21773;50.010;19.972;2023-08-21T13:04:09;24.60;20.60;18.00
35654;PMS1003;21773;50.010;19.972;2023-08-21T13:07:12;22.75;21.75;19.00
35654;PMS1003;21773;50.010;19.972;2023-08-21T13:10:16;25.00;24.00;20.00
35654;PMS1003;21773;50.010;19.972;2023-08-21T13:13:21;25.60;24.00;20.00
35654;PMS1003;21773;50.010;19.972;2023-08-21T13:16:24;23.00;22.33;19.00
35654;PMS1003;21773;50.010;19.972;2023-08-21T13:19:27;30.00;25.00;20.00
35654;PMS1003;21773;50.010;19.972;2023-08-21T13:22:43;25.40;23.40;19.40
35654;PMS1003;21773;50.010;19.972;2023-08-21T13:25:47;26.00;23.00;20.00
35654;PMS1003;21773;50.010;19.972;2023-08-21T13:28:51;28.00;23.75;19.75
35654;PMS1003;21773;50.010;19.972;2023-08-21T13:31:54;26.00;23.40;20.00
35654;PMS1003;21773;50.010;19.972;2023-08-21T13:34:58;26.00;23.00;19.80
35654;PMS1003;21773;50.010;19.972;2023-08-21T13:38:01;27.75;25.00;20.00
35654;PMS1003;21773;50.010;19.972;2023-08-21T13:41:06;27.60;24.00;20.00
35654;PMS1003;21773;50.010;19.972;2023-08-21T13:44:10;27.20;25.40;21.20
35654;PMS1003;21773;50.010;19.972;2023-08-21T13:47:13;26.60;24.60;20.00
35654;PMS1003;21773;50.010;19.972;2023-08-21T13:50:17;27.00;25.60;20.00
35654;PMS1003;21773;50.010;19.972;2023-08-21T13:53:20;29.25;24.75;20.00
35654;PMS1003;21773;50.010;19.972;2023-08-21T13:56:23;26.60;26.00;22.00
35654;PMS1003;21773;50.010;19.972;2023-08-21T13:59:28;26.40;25.60;20.00
35654;PMS1003;21773;50.010;19.972;2023-08-21T14:02:31;25.00;23.00;19.60
35654;PMS1003;21773;50.010;19.972;2023-08-21T14:05:35;22.00;21.00;18.00
35654;PMS1003;21773;50.010;19.972;2023-08-21T14:08:38;22.00;20.00;17.60
35654;PMS1003;21773;50.010;19.972;2023-08-21T14:11:42;20.20;19.20;16.20
35654;PMS1003;21773;50.010;19.972;2023-08-21T14:14:46;23.20;21.00;17.60
35654;PMS1003;21773;50.010;19.972;2023-08-21T14:17:50;24.80;21.80;18.00
35654;PMS1003;21773;50.010;19.972;2023-08-21T14:20:57;23.00;22.00;18.50
35654;PMS1003;21773;50.010;19.972;2023-08-21T14:24:00;21.40;20.40;17.40
35654;PMS1003;21773;50.010;19.972;2023-08-21T14:27:04;23.20;22.20;19.80
35654;PMS1003;21773;50.010;19.972;2023-08-21T14:30:09;24.00;21.60;18.60
35654;PMS1003;21773;50.010;19.972;2023-08-21T14:33:13;21.80;20.40;18.00
35654;PMS1003;21773;50.010;19.972;2023-08-21T14:36:16;19.00;18.00;15.00
35654;PMS1003;21773;50.010;19.972;2023-08-21T14:39:19;21.20;20.00;16.00
35654;PMS1003;21773;50.010;19.972;2023-08-21T14:42:23;22.00;20.40;17.40
35654;PMS1003;21773;50.010;19.972;2023-08-21T14:45:28;22.40;20.40;17.00
35654;PMS1003;21773;50.010;19.972;2023-08-21T14:48:31;21.00;19.00;17.00
35654;PMS1003;21773;50.010;19.972;2023-08-21T14:51:34;19.00;18.00;16.00
35654;PMS1003;21773;50.010;19.972;2023-08-21T14:54:38;21.00;19.50;16.50
35654;PMS1003;21773;50.010;19.972;2023-08-21T14:57:42;21.80;19.40;17.20
35654;PMS1003;21773;50.010;19.972;2023-08-21T15:00:46;20.20;18.20;15.20
35654;PMS1003;21773;50.010;19.972;2023-08-21T15:03:52;18.20;17.00;15.20
35654;PMS1003;21773;50.010;19.972;2023-08-21T15:06:56;22.00;20.00;18.75
35654;PMS1003;21773;50.010;19.972;2023-08-21T15:09:59;20.00;19.00;17.00
35654;PMS1003;21773;50.010;19.972;2023-08-21T15:13:02;17.00;17.00;15.00
35654;PMS1003;21773;50.010;19.972;2023-08-21T15:16:07;22.00;20.00;17.00
35654;PMS1003;21773;50.010;19.972;2023-08-21T15:19:12;20.25;19.25;16.50
35654;PMS1003;21773;50.010;19.972;2023-08-21T15:22:15;19.60;18.00;16.00
35654;PMS1003;21773;50.010;19.972;2023-08-21T15:25:19;20.40;18.40;15.40
35654;PMS1003;21773;50.010;19.972;2023-08-21T15:28:23;20.80;20.00;16.80
35654;PMS1003;21773;50.010;19.972;2023-08-21T15:31:27;21.00;19.60;16.60
35654;PMS1003;21773;50.010;19.972;2023-08-21T15:34:31;20.75;18.75;16.00
35654;PMS1003;21773;50.010;19.972;2023-08-21T15:37:34;20.50;18.25;16.00
35654;PMS1003;21773;50.010;19.972;2023-08-21T15:40:37;19.00;19.00;15.40
35654;PMS1003;21773;50.010;19.972;2023-08-21T15:43:44;20.00;19.00;18.00
35654;PMS1003;21773;50.010;19.972;2023-08-21T15:46:49;20.75;20.00;17.50
35654;PMS1003;21773;50.010;19.972;2023-08-21T15:50:12;21.50;19.50;16.25
35654;PMS1003;21773;50.010;19.972;2023-08-21T15:53:15;21.00;19.00;17.00
35654;PMS1003;21773;50.010;19.972;2023-08-21T15:56:18;24.00;22.00;19.00
35654;PMS1003;21773;50.010;19.972;2023-08-21T15:59:21;25.00;22.00;19.00
35654;PMS1003;21773;50.010;19.972;2023-08-21T16:02:26;21.60;20.60;17.60
35654;PMS1003;21773;50.010;19.972;2023-08-21T16:05:30;25.00;22.00;18.00
35654;PMS1003;21773;50.010;19.972;2023-08-21T16:08:33;23.00;21.00;18.00
35654;PMS1003;21773;50.010;19.972;2023-08-21T16:11:36;19.60;18.60;15.60
35654;PMS1003;21773;50.010;19.972;2023-08-21T16:14:40;23.25;21.25;18.25
35654;PMS1003;21773;50.010;19.972;2023-08-21T16:17:44;20.00;18.00;15.60
35654;PMS1003;21773;50.010;19.972;2023-08-21T16:20:48;19.00;19.00;16.00
35654;PMS1003;21773;50.010;19.972;2023-08-21T16:23:51;23.40;21.40;18.40
35654;PMS1003;21773;50.010;19.972;2023-08-21T16:26:55;22.20;19.00;16.60
35654;PMS1003;21773;50.010;19.972;2023-08-21T16:29:58;23.00;21.00;17.80
35654;PMS1003;21773;50.010;19.972;2023-08-21T16:33:03;24.80;23.00;19.00
35654;PMS1003;21773;50.010;19.972;2023-08-21T16:36:07;19.80;19.80;17.80
35654;PMS1003;21773;50.010;19.972;2023-08-21T16:39:10;22.25;19.25;16.00
35654;PMS1003;21773;50.010;19.972;2023-08-21T16:42:14;20.00;19.00;16.60
35654;PMS1003;21773;50.010;19.972;2023-08-21T16:45:17;22.00;21.00;17.00
35654;PMS1003;21773;50.010;19.972;2023-08-21T16:48:21;25.25;22.00;19.00
35654;PMS1003;21773;50.010;19.972;2023-08-21T16:51:24;22.00;21.00;19.00
35654;PMS1003;21773;50.010;19.972;2023-08-21T16:54:28;23.00;22.00;19.00
35654;PMS1003;21773;50.010;19.972;2023-08-21T16:57:31;21.40;20.60;18.00
35654;PMS1003;21773;50.010;19.972;2023-08-21T17:00:34;23.60;22.00;18.60
35654;PMS1003;21773;50.010;19.972;2023-08-21T17:03:39;21.00;21.00;18.60